sensor_id;sensor_type;location;lat;lon;timestamp;P1;durP1;ratioP1;P2;durP2;ratioP2
76228;SDS011;65021;53.174;18.160;2022-12-07T00:01:43;18.30;;;8.00;;
76228;SDS011;65021;53.174;18.160;2022-12-07T00:04:12;16.00;;;7.10;;
76228;SDS011;65021;53.174;18.160;2022-12-07T00:06:41;16.50;;;5.80;;
76228;SDS011;65021;53.174;18.160;2022-12-07T00:11:38;13.70;;;6.10;;
76228;SDS011;65021;53.174;18.160;2022-12-07T00:14:06;16.90;;;6.90;;
76228;SDS011;65021;53.174;18.160;2022-12-07T00:16:36;18.60;;;7.70;;
76228;SDS011;65021;53.174;18.160;2022-12-07T00:19:03;17.10;;;7.30;;
76228;SDS011;65021;53.174;18.160;2022-12-07T00:21:31;16.90;;;6.60;;
76228;SDS011;65021;53.174;18.160;2022-12-07T00:23:59;14.20;;;6.10;;
76228;SDS011;65021;53.174;18.160;2022-12-07T00:26:27;12.50;;;6.70;;
76228;SDS011;65021;53.174;18.160;2022-12-07T00:29:03;8.40;;;2.80;;
76228;SDS011;65021;53.174;18.160;2022-12-07T00:31:43;13.20;;;6.20;;
76228;SDS011;65021;53.174;18.160;2022-12-07T00:34:17;13.30;;;5.60;;
76228;SDS011;65021;53.174;18.160;2022-12-07T00:36:45;17.10;;;6.50;;
76228;SDS011;65021;53.174;18.160;2022-12-07T00:39:12;16.80;;;7.50;;
76228;SDS011;65021;53.174;18.160;2022-12-07T00:41:39;20.10;;;7.50;;
76228;SDS011;65021;53.174;18.160;2022-12-07T00:44:06;14.60;;;6.80;;
76228;SDS011;65021;53.174;18.160;2022-12-07T00:46:33;15.50;;;6.40;;
76228;SDS011;65021;53.174;18.160;2022-12-07T00:49:00;12.70;;;6.50;;
76228;SDS011;65021;53.174;18.160;2022-12-07T00:51:26;14.40;;;4.50;;
76228;SDS011;65021;53.174;18.160;2022-12-07T00:53:53;9.00;;;3.60;;
76228;SDS011;65021;53.174;18.160;2022-12-07T00:56:24;13.90;;;6.10;;
76228;SDS011;65021;53.174;18.160;2022-12-07T00:58:53;18.80;;;7.20;;
76228;SDS011;65021;53.174;18.160;2022-12-07T01:01:24;11.50;;;5.00;;
76228;SDS011;65021;53.174;18.160;2022-12-07T01:03:53;18.70;;;7.50;;
76228;SDS011;65021;53.174;18.160;2022-12-07T01:06:20;22.30;;;8.10;;
76228;SDS011;65021;53.174;18.160;2022-12-07T01:08:48;16.50;;;7.00;;
76228;SDS011;65021;53.174;18.160;2022-12-07T01:11:19;14.20;;;5.10;;
76228;SDS011;65021;53.174;18.160;2022-12-07T01:13:52;15.20;;;6.90;;
76228;SDS011;65021;53.174;18.160;2022-12-07T01:16:20;10.50;;;5.00;;
76228;SDS011;65021;53.174;18.160;2022-12-07T01:18:49;12.50;;;5.20;;
76228;SDS011;65021;53.174;18.160;2022-12-07T01:21:21;10.10;;;4.20;;
76228;SDS011;65021;53.174;18.160;2022-12-07T01:23:50;10.30;;;4.20;;
76228;SDS011;65021;53.174;18.160;2022-12-07T01:26:18;8.80;;;3.00;;
76228;SDS011;65021;53.174;18.160;2022-12-07T01:28:46;9.90;;;3.60;;
76228;SDS011;65021;53.174;18.160;2022-12-07T01:31:14;14.20;;;5.00;;
76228;SDS011;65021;53.174;18.160;2022-12-07T01:33:46;13.40;;;5.30;;
76228;SDS011;65021;53.174;18.160;2022-12-07T01:36:22;11.50;;;5.80;;
76228;SDS011;65021;53.174;18.160;2022-12-07T01:38:51;9.30;;;4.30;;
76228;SDS011;65021;53.174;18.160;2022-12-07T01:41:23;9.40;;;4.60;;
76228;SDS011;65021;53.174;18.160;2022-12-07T01:46:59;8.80;;;4.10;;
76228;SDS011;65021;53.174;18.160;2022-12-07T01:49:35;5.50;;;2.40;;
76228;SDS011;65021;53.174;18.160;2022-12-07T01:52:25;4.70;;;2.20;;
76228;SDS011;65021;53.174;18.160;2022-12-07T01:55:01;3.70;;;1.40;;
76228;SDS011;65021;53.174;18.160;2022-12-07T01:57:31;10.60;;;4.40;;
76228;SDS011;65021;53.174;18.160;2022-12-07T02:00:00;8.60;;;3.70;;
76228;SDS011;65021;53.174;18.160;2022-12-07T02:02:29;9.00;;;4.00;;
76228;SDS011;65021;53.174;18.160;2022-12-07T02:05:00;7.80;;;3.00;;
76228;SDS011;65021;53.174;18.160;2022-12-07T02:07:28;6.30;;;2.80;;
76228;SDS011;65021;53.174;18.160;2022-12-07T02:09:57;6.60;;;3.10;;
76228;SDS011;65021;53.174;18.160;2022-12-07T02:12:23;5.70;;;3.00;;
76228;SDS011;65021;53.174;18.160;2022-12-07T02:14:51;7.70;;;3.30;;
76228;SDS011;65021;53.174;18.160;2022-12-07T02:23:00;7.30;;;3.10;;
76228;SDS011;65021;53.174;18.160;2022-12-07T02:25:33;9.80;;;3.50;;
76228;SDS011;65021;53.174;18.160;2022-12-07T02:28:29;6.10;;;2.50;;
76228;SDS011;65021;53.174;18.160;2022-12-07T02:31:02;6.50;;;3.60;;
76228;SDS011;65021;53.174;18.160;2022-12-07T02:33:35;5.40;;;2.00;;
76228;SDS011;65021;53.174;18.160;2022-12-07T02:36:11;7.70;;;4.00;;
76228;SDS011;65021;53.174;18.160;2022-12-07T02:41:23;10.70;;;4.40;;
76228;SDS011;65021;53.174;18.160;2022-12-07T02:43:56;8.70;;;3.90;;
76228;SDS011;65021;53.174;18.160;2022-12-07T02:46:30;7.30;;;3.40;;
76228;SDS011;65021;53.174;18.160;2022-12-07T02:49:00;7.50;;;3.70;;
76228;SDS011;65021;53.174;18.160;2022-12-07T02:51:30;10.60;;;3.90;;
76228;SDS011;65021;53.174;18.160;2022-12-07T02:53:58;8.40;;;3.50;;
76228;SDS011;65021;53.174;18.160;2022-12-07T03:02:00;7.40;;;3.00;;
76228;SDS011;65021;53.174;18.160;2022-12-07T03:13:11;7.60;;;3.40;;
76228;SDS011;65021;53.174;18.160;2022-12-07T03:18:46;8.70;;;3.60;;
76228;SDS011;65021;53.174;18.160;2022-12-07T03:21:19;9.90;;;4.70;;
76228;SDS011;65021;53.174;18.160;2022-12-07T03:23:52;11.20;;;4.40;;
76228;SDS011;65021;53.174;18.160;2022-12-07T03:26:23;8.10;;;3.50;;
76228;SDS011;65021;53.174;18.160;2022-12-07T03:28:58;10.20;;;3.80;;
76228;SDS011;65021;53.174;18.160;2022-12-07T03:31:31;8.90;;;4.50;;
76228;SDS011;65021;53.174;18.160;2022-12-07T03:34:07;9.10;;;4.30;;
76228;SDS011;65021;53.174;18.160;2022-12-07T03:39:52;6.80;;;3.30;;
76228;SDS011;65021;53.174;18.160;2022-12-07T03:42:28;6.80;;;2.90;;
76228;SDS011;65021;53.174;18.160;2022-12-07T03:44:56;8.90;;;4.40;;
76228;SDS011;65021;53.174;18.160;2022-12-07T03:50:09;10.30;;;4.90;;
76228;SDS011;65021;53.174;18.160;2022-12-07T03:52:45;7.10;;;3.50;;
76228;SDS011;65021;53.174;18.160;2022-12-07T03:57:46;6.80;;;3.60;;
76228;SDS011;65021;53.174;18.160;2022-12-07T04:00:17;8.70;;;4.20;;
76228;SDS011;65021;53.174;18.160;2022-12-07T04:02:44;7.90;;;3.80;;
76228;SDS011;65021;53.174;18.160;2022-12-07T04:05:11;7.40;;;3.40;;
76228;SDS011;65021;53.174;18.160;2022-12-07T04:07:38;7.50;;;3.00;;
76228;SDS011;65021;53.174;18.160;2022-12-07T04:10:05;7.20;;;3.20;;
76228;SDS011;65021;53.174;18.160;2022-12-07T04:12:32;6.20;;;3.40;;
76228;SDS011;65021;53.174;18.160;2022-12-07T04:14:59;6.40;;;3.30;;
76228;SDS011;65021;53.174;18.160;2022-12-07T04:17:25;6.00;;;2.50;;
76228;SDS011;65021;53.174;18.160;2022-12-07T04:19:52;4.50;;;1.80;;
76228;SDS011;65021;53.174;18.160;2022-12-07T04:22:18;6.50;;;3.10;;
76228;SDS011;65021;53.174;18.160;2022-12-07T04:24:45;7.70;;;2.90;;
76228;SDS011;65021;53.174;18.160;2022-12-07T04:27:12;6.10;;;2.90;;
76228;SDS011;65021;53.174;18.160;2022-12-07T04:29:38;5.80;;;3.50;;
76228;SDS011;65021;53.174;18.160;2022-12-07T04:32:05;7.80;;;3.50;;
76228;SDS011;65021;53.174;18.160;2022-12-07T04:34:32;6.20;;;3.00;;
76228;SDS011;65021;53.174;18.160;2022-12-07T04:36:58;8.00;;;4.10;;
76228;SDS011;65021;53.174;18.160;2022-12-07T04:39:26;8.50;;;4.00;;
76228;SDS011;65021;53.174;18.160;2022-12-07T04:41:54;7.00;;;3.30;;
76228;SDS011;65021;53.174;18.160;2022-12-07T04:44:22;7.30;;;3.60;;
76228;SDS011;65021;53.174;18.160;2022-12-07T04:46:50;7.60;;;3.00;;
76228;SDS011;65021;53.174;18.160;2022-12-07T04:49:18;5.20;;;2.20;;
76228;SDS011;65021;53.174;18.160;2022-12-07T04:51:45;5.40;;;2.60;;
76228;SDS011;65021;53.174;18.160;2022-12-07T04:54:12;6.60;;;3.30;;
76228;SDS011;65021;53.174;18.160;2022-12-07T04:56:40;5.60;;;2.60;;
76228;SDS011;65021;53.174;18.160;2022-12-07T04:59:07;10.20;;;4.40;;
76228;SDS011;65021;53.174;18.160;2022-12-07T05:01:34;7.70;;;4.20;;
76228;SDS011;65021;53.174;18.160;2022-12-07T05:04:01;7.80;;;3.40;;
76228;SDS011;65021;53.174;18.160;2022-12-07T05:06:31;7.50;;;3.80;;
76228;SDS011;65021;53.174;18.160;2022-12-07T05:11:24;6.30;;;3.00;;
76228;SDS011;65021;53.174;18.160;2022-12-07T05:14:16;9.20;;;3.80;;
76228;SDS011;65021;53.174;18.160;2022-12-07T05:16:46;7.60;;;3.20;;
76228;SDS011;65021;53.174;18.160;2022-12-07T05:19:15;11.70;;;5.40;;
76228;SDS011;65021;53.174;18.160;2022-12-07T05:21:43;7.50;;;3.30;;
76228;SDS011;65021;53.174;18.160;2022-12-07T05:24:10;6.90;;;3.20;;
76228;SDS011;65021;53.174;18.160;2022-12-07T05:26:39;8.80;;;3.90;;
76228;SDS011;65021;53.174;18.160;2022-12-07T05:29:06;5.80;;;2.30;;
76228;SDS011;65021;53.174;18.160;2022-12-07T05:31:34;8.00;;;3.80;;
76228;SDS011;65021;53.174;18.160;2022-12-07T05:34:00;9.60;;;5.00;;
76228;SDS011;65021;53.174;18.160;2022-12-07T05:36:27;12.90;;;5.60;;
76228;SDS011;65021;53.174;18.160;2022-12-07T05:38:54;13.10;;;4.50;;
76228;SDS011;65021;53.174;18.160;2022-12-07T05:41:21;9.80;;;4.80;;
76228;SDS011;65021;53.174;18.160;2022-12-07T05:44:06;6.70;;;3.60;;
76228;SDS011;65021;53.174;18.160;2022-12-07T05:46:33;8.20;;;3.90;;
76228;SDS011;65021;53.174;18.160;2022-12-07T05:49:00;8.00;;;3.10;;
76228;SDS011;65021;53.174;18.160;2022-12-07T05:51:27;10.00;;;4.90;;
76228;SDS011;65021;53.174;18.160;2022-12-07T05:53:54;5.00;;;2.40;;
76228;SDS011;65021;53.174;18.160;2022-12-07T05:56:20;9.50;;;4.60;;
76228;SDS011;65021;53.174;18.160;2022-12-07T05:58:47;8.70;;;4.60;;
76228;SDS011;65021;53.174;18.160;2022-12-07T06:01:32;9.20;;;4.30;;
76228;SDS011;65021;53.174;18.160;2022-12-07T06:03:58;7.60;;;3.30;;
76228;SDS011;65021;53.174;18.160;2022-12-07T06:06:25;6.80;;;3.60;;
76228;SDS011;65021;53.174;18.160;2022-12-07T06:08:52;6.80;;;3.00;;
76228;SDS011;65021;53.174;18.160;2022-12-07T06:11:18;9.00;;;3.90;;
76228;SDS011;65021;53.174;18.160;2022-12-07T06:14:03;8.90;;;3.60;;
76228;SDS011;65021;53.174;18.160;2022-12-07T06:16:30;8.40;;;3.60;;
76228;SDS011;65021;53.174;18.160;2022-12-07T06:18:56;8.80;;;3.50;;
76228;SDS011;65021;53.174;18.160;2022-12-07T06:21:23;7.50;;;2.90;;
76228;SDS011;65021;53.174;18.160;2022-12-07T06:23:52;7.70;;;3.60;;
76228;SDS011;65021;53.174;18.160;2022-12-07T06:26:18;7.80;;;2.90;;
76228;SDS011;65021;53.174;18.160;2022-12-07T06:28:45;10.60;;;4.50;;
76228;SDS011;65021;53.174;18.160;2022-12-07T06:31:12;8.30;;;3.60;;
76228;SDS011;65021;53.174;18.160;2022-12-07T06:33:39;10.50;;;4.80;;
76228;SDS011;65021;53.174;18.160;2022-12-07T06:36:05;13.90;;;6.10;;
76228;SDS011;65021;53.174;18.160;2022-12-07T06:38:32;13.80;;;5.50;;
76228;SDS011;65021;53.174;18.160;2022-12-07T06:40:59;15.50;;;6.20;;
76228;SDS011;65021;53.174;18.160;2022-12-07T06:43:25;12.90;;;5.50;;
76228;SDS011;65021;53.174;18.160;2022-12-07T06:45:52;12.80;;;5.40;;
76228;SDS011;65021;53.174;18.160;2022-12-07T06:48:18;20.70;;;8.60;;
76228;SDS011;65021;53.174;18.160;2022-12-07T06:50:45;17.30;;;6.20;;
76228;SDS011;65021;53.174;18.160;2022-12-07T06:53:13;24.50;;;10.00;;
76228;SDS011;65021;53.174;18.160;2022-12-07T06:55:40;22.10;;;9.40;;
76228;SDS011;65021;53.174;18.160;2022-12-07T06:58:07;23.10;;;8.50;;
76228;SDS011;65021;53.174;18.160;2022-12-07T07:00:34;18.90;;;7.20;;
76228;SDS011;65021;53.174;18.160;2022-12-07T07:03:01;15.20;;;5.70;;
76228;SDS011;65021;53.174;18.160;2022-12-07T07:05:27;15.20;;;6.40;;
76228;SDS011;65021;53.174;18.160;2022-12-07T07:07:54;17.20;;;6.00;;
76228;SDS011;65021;53.174;18.160;2022-12-07T07:10:20;13.60;;;4.90;;
76228;SDS011;65021;53.174;18.160;2022-12-07T07:12:47;18.60;;;8.60;;
76228;SDS011;65021;53.174;18.160;2022-12-07T07:15:14;20.90;;;7.60;;
76228;SDS011;65021;53.174;18.160;2022-12-07T07:17:40;18.60;;;7.30;;
76228;SDS011;65021;53.174;18.160;2022-12-07T07:20:07;13.80;;;6.00;;
76228;SDS011;65021;53.174;18.160;2022-12-07T07:22:34;17.70;;;6.60;;
76228;SDS011;65021;53.174;18.160;2022-12-07T07:25:00;17.00;;;8.10;;
76228;SDS011;65021;53.174;18.160;2022-12-07T07:27:27;17.10;;;6.30;;
76228;SDS011;65021;53.174;18.160;2022-12-07T07:29:53;18.40;;;7.80;;
76228;SDS011;65021;53.174;18.160;2022-12-07T07:32:20;19.70;;;9.30;;
76228;SDS011;65021;53.174;18.160;2022-12-07T07:34:48;18.60;;;8.10;;
76228;SDS011;65021;53.174;18.160;2022-12-07T07:37:14;22.90;;;9.10;;
76228;SDS011;65021;53.174;18.160;2022-12-07T07:39:41;15.10;;;6.90;;
76228;SDS011;65021;53.174;18.160;2022-12-07T07:42:07;20.20;;;8.20;;
76228;SDS011;65021;53.174;18.160;2022-12-07T07:44:34;16.30;;;7.50;;
76228;SDS011;65021;53.174;18.160;2022-12-07T07:47:01;13.60;;;5.20;;
76228;SDS011;65021;53.174;18.160;2022-12-07T07:49:28;21.30;;;8.50;;
76228;SDS011;65021;53.174;18.160;2022-12-07T07:51:55;18.00;;;7.90;;
76228;SDS011;65021;53.174;18.160;2022-12-07T07:54:21;20.00;;;7.70;;
76228;SDS011;65021;53.174;18.160;2022-12-07T07:56:48;19.20;;;7.80;;
76228;SDS011;65021;53.174;18.160;2022-12-07T07:59:15;16.40;;;6.90;;
76228;SDS011;65021;53.174;18.160;2022-12-07T08:01:42;17.40;;;6.20;;
76228;SDS011;65021;53.174;18.160;2022-12-07T08:04:08;13.90;;;5.00;;
76228;SDS011;65021;53.174;18.160;2022-12-07T08:06:35;8.80;;;3.80;;
76228;SDS011;65021;53.174;18.160;2022-12-07T08:09:01;24.50;;;7.50;;
76228;SDS011;65021;53.174;18.160;2022-12-07T08:11:29;18.80;;;6.90;;
76228;SDS011;65021;53.174;18.160;2022-12-07T08:13:56;18.50;;;7.90;;
76228;SDS011;65021;53.174;18.160;2022-12-07T08:16:22;17.80;;;7.80;;
76228;SDS011;65021;53.174;18.160;2022-12-07T08:18:49;17.20;;;7.20;;
76228;SDS011;65021;53.174;18.160;2022-12-07T08:21:15;13.70;;;6.00;;
76228;SDS011;65021;53.174;18.160;2022-12-07T08:23:42;14.70;;;7.30;;
76228;SDS011;65021;53.174;18.160;2022-12-07T08:26:11;21.20;;;7.50;;
76228;SDS011;65021;53.174;18.160;2022-12-07T08:28:40;16.20;;;5.60;;
76228;SDS011;65021;53.174;18.160;2022-12-07T08:31:10;23.30;;;8.40;;
76228;SDS011;65021;53.174;18.160;2022-12-07T08:33:38;20.90;;;7.90;;
76228;SDS011;65021;53.174;18.160;2022-12-07T08:36:07;13.30;;;5.20;;
76228;SDS011;65021;53.174;18.160;2022-12-07T08:41:02;16.00;;;6.00;;
76228;SDS011;65021;53.174;18.160;2022-12-07T08:43:29;16.20;;;7.20;;
76228;SDS011;65021;53.174;18.160;2022-12-07T08:48:41;18.20;;;8.40;;
76228;SDS011;65021;53.174;18.160;2022-12-07T08:51:11;12.90;;;4.50;;
76228;SDS011;65021;53.174;18.160;2022-12-07T08:53:39;15.70;;;7.50;;
76228;SDS011;65021;53.174;18.160;2022-12-07T08:56:06;14.50;;;6.20;;
76228;SDS011;65021;53.174;18.160;2022-12-07T08:58:34;16.60;;;7.80;;
76228;SDS011;65021;53.174;18.160;2022-12-07T09:01:02;11.90;;;5.00;;
76228;SDS011;65021;53.174;18.160;2022-12-07T09:03:29;9.20;;;4.00;;
76228;SDS011;65021;53.174;18.160;2022-12-07T09:05:55;15.70;;;6.50;;
76228;SDS011;65021;53.174;18.160;2022-12-07T09:08:25;17.00;;;7.50;;
76228;SDS011;65021;53.174;18.160;2022-12-07T09:10:56;15.10;;;6.30;;
76228;SDS011;65021;53.174;18.160;2022-12-07T09:13:22;10.40;;;5.00;;
76228;SDS011;65021;53.174;18.160;2022-12-07T09:15:49;14.90;;;7.30;;
76228;SDS011;65021;53.174;18.160;2022-12-07T09:18:15;14.50;;;6.60;;
76228;SDS011;65021;53.174;18.160;2022-12-07T09:20:42;11.90;;;5.80;;
76228;SDS011;65021;53.174;18.160;2022-12-07T09:23:08;13.80;;;5.90;;
76228;SDS011;65021;53.174;18.160;2022-12-07T09:25:35;18.00;;;8.20;;
76228;SDS011;65021;53.174;18.160;2022-12-07T09:28:01;11.40;;;5.00;;
76228;SDS011;65021;53.174;18.160;2022-12-07T09:30:28;12.00;;;6.40;;
76228;SDS011;65021;53.174;18.160;2022-12-07T09:32:55;13.20;;;6.90;;
76228;SDS011;65021;53.174;18.160;2022-12-07T09:35:23;13.50;;;7.10;;
76228;SDS011;65021;53.174;18.160;2022-12-07T09:37:50;13.80;;;7.30;;
76228;SDS011;65021;53.174;18.160;2022-12-07T09:40:17;10.90;;;4.70;;
76228;SDS011;65021;53.174;18.160;2022-12-07T09:45:19;10.00;;;4.30;;
76228;SDS011;65021;53.174;18.160;2022-12-07T09:47:48;12.50;;;6.00;;
76228;SDS011;65021;53.174;18.160;2022-12-07T09:50:20;16.40;;;6.40;;
76228;SDS011;65021;53.174;18.160;2022-12-07T09:52:49;10.10;;;5.00;;
76228;SDS011;65021;53.174;18.160;2022-12-07T09:55:24;9.80;;;5.20;;
76228;SDS011;65021;53.174;18.160;2022-12-07T09:57:54;10.30;;;5.40;;
76228;SDS011;65021;53.174;18.160;2022-12-07T10:00:21;7.60;;;3.70;;
76228;SDS011;65021;53.174;18.160;2022-12-07T10:02:51;11.80;;;6.20;;
76228;SDS011;65021;53.174;18.160;2022-12-07T10:05:27;12.80;;;6.20;;
76228;SDS011;65021;53.174;18.160;2022-12-07T10:08:09;13.60;;;6.20;;
76228;SDS011;65021;53.174;18.160;2022-12-07T10:10:38;12.70;;;6.40;;
76228;SDS011;65021;53.174;18.160;2022-12-07T10:13:10;8.00;;;3.20;;
76228;SDS011;65021;53.174;18.160;2022-12-07T10:23:29;11.60;;;6.10;;
76228;SDS011;65021;53.174;18.160;2022-12-07T10:25:56;12.50;;;6.50;;
76228;SDS011;65021;53.174;18.160;2022-12-07T10:28:22;12.50;;;6.60;;
76228;SDS011;65021;53.174;18.160;2022-12-07T10:31:23;10.50;;;5.10;;
76228;SDS011;65021;53.174;18.160;2022-12-07T10:38:50;8.20;;;3.50;;
76228;SDS011;65021;53.174;18.160;2022-12-07T10:41:35;10.60;;;6.20;;
76228;SDS011;65021;53.174;18.160;2022-12-07T10:44:02;9.10;;;4.10;;
76228;SDS011;65021;53.174;18.160;2022-12-07T10:49:22;9.30;;;3.70;;
76228;SDS011;65021;53.174;18.160;2022-12-07T10:57:11;9.40;;;4.90;;
76228;SDS011;65021;53.174;18.160;2022-12-07T11:03:16;9.50;;;4.70;;
76228;SDS011;65021;53.174;18.160;2022-12-07T11:17:17;8.90;;;3.90;;
76228;SDS011;65021;53.174;18.160;2022-12-07T11:30:34;11.40;;;6.10;;
76228;SDS011;65021;53.174;18.160;2022-12-07T11:33:22;10.30;;;5.10;;
76228;SDS011;65021;53.174;18.160;2022-12-07T11:38:53;11.10;;;5.70;;
76228;SDS011;65021;53.174;18.160;2022-12-07T11:41:28;6.90;;;3.30;;
76228;SDS011;65021;53.174;18.160;2022-12-07T11:44:06;9.80;;;4.60;;
76228;SDS011;65021;53.174;18.160;2022-12-07T11:55:12;8.20;;;3.70;;
76228;SDS011;65021;53.174;18.160;2022-12-07T11:57:45;12.20;;;5.70;;
76228;SDS011;65021;53.174;18.160;2022-12-07T12:00:18;8.40;;;3.70;;
76228;SDS011;65021;53.174;18.160;2022-12-07T12:02:50;11.20;;;5.50;;
76228;SDS011;65021;53.174;18.160;2022-12-07T12:05:24;10.80;;;6.20;;
76228;SDS011;65021;53.174;18.160;2022-12-07T12:08:06;9.30;;;4.60;;
76228;SDS011;65021;53.174;18.160;2022-12-07T12:19:30;8.20;;;3.40;;
76228;SDS011;65021;53.174;18.160;2022-12-07T12:22:12;11.10;;;6.10;;
76228;SDS011;65021;53.174;18.160;2022-12-07T12:24:43;10.80;;;4.10;;
76228;SDS011;65021;53.174;18.160;2022-12-07T12:27:19;12.00;;;5.80;;
76228;SDS011;65021;53.174;18.160;2022-12-07T12:29:55;11.10;;;6.00;;
76228;SDS011;65021;53.174;18.160;2022-12-07T12:40:48;11.40;;;6.00;;
76228;SDS011;65021;53.174;18.160;2022-12-07T12:56:49;12.20;;;5.60;;
76228;SDS011;65021;53.174;18.160;2022-12-07T13:01:49;11.00;;;5.50;;
76228;SDS011;65021;53.174;18.160;2022-12-07T13:04:24;9.60;;;4.10;;
76228;SDS011;65021;53.174;18.160;2022-12-07T13:06:54;9.80;;;5.00;;
76228;SDS011;65021;53.174;18.160;2022-12-07T13:11:56;13.60;;;7.30;;
76228;SDS011;65021;53.174;18.160;2022-12-07T13:19:58;9.70;;;4.60;;
76228;SDS011;65021;53.174;18.160;2022-12-07T13:24:58;12.10;;;6.80;;
76228;SDS011;65021;53.174;18.160;2022-12-07T13:27:27;8.30;;;4.20;;
76228;SDS011;65021;53.174;18.160;2022-12-07T13:29:56;8.00;;;4.10;;
76228;SDS011;65021;53.174;18.160;2022-12-07T13:32:25;12.40;;;6.10;;
76228;SDS011;65021;53.174;18.160;2022-12-07T13:34:53;10.60;;;5.10;;
76228;SDS011;65021;53.174;18.160;2022-12-07T13:39:50;12.10;;;5.80;;
76228;SDS011;65021;53.174;18.160;2022-12-07T13:42:24;8.50;;;3.60;;
76228;SDS011;65021;53.174;18.160;2022-12-07T13:44:52;10.90;;;5.00;;
76228;SDS011;65021;53.174;18.160;2022-12-07T13:47:28;10.80;;;4.70;;
76228;SDS011;65021;53.174;18.160;2022-12-07T13:50:20;9.40;;;4.60;;
76228;SDS011;65021;53.174;18.160;2022-12-07T13:52:50;9.90;;;4.00;;
76228;SDS011;65021;53.174;18.160;2022-12-07T13:55:20;10.60;;;4.80;;
76228;SDS011;65021;53.174;18.160;2022-12-07T13:57:48;11.30;;;5.10;;
76228;SDS011;65021;53.174;18.160;2022-12-07T14:00:19;9.70;;;3.80;;
76228;SDS011;65021;53.174;18.160;2022-12-07T14:05:28;8.10;;;4.00;;
76228;SDS011;65021;53.174;18.160;2022-12-07T14:08:00;8.60;;;4.10;;
76228;SDS011;65021;53.174;18.160;2022-12-07T14:12:57;6.80;;;2.60;;
76228;SDS011;65021;53.174;18.160;2022-12-07T14:15:28;8.60;;;4.20;;
76228;SDS011;65021;53.174;18.160;2022-12-07T14:17:57;11.30;;;5.30;;
76228;SDS011;65021;53.174;18.160;2022-12-07T14:23:03;7.60;;;3.70;;
76228;SDS011;65021;53.174;18.160;2022-12-07T14:25:47;9.80;;;4.80;;
76228;SDS011;65021;53.174;18.160;2022-12-07T14:28:28;7.60;;;3.70;;
76228;SDS011;65021;53.174;18.160;2022-12-07T14:30:56;9.00;;;4.30;;
76228;SDS011;65021;53.174;18.160;2022-12-07T14:33:22;8.60;;;4.90;;
76228;SDS011;65021;53.174;18.160;2022-12-07T14:35:50;12.20;;;5.50;;
76228;SDS011;65021;53.174;18.160;2022-12-07T14:38:21;9.70;;;5.00;;
76228;SDS011;65021;53.174;18.160;2022-12-07T14:40:48;8.60;;;4.80;;
76228;SDS011;65021;53.174;18.160;2022-12-07T14:43:15;7.70;;;3.60;;
76228;SDS011;65021;53.174;18.160;2022-12-07T14:45:43;11.60;;;5.40;;
76228;SDS011;65021;53.174;18.160;2022-12-07T14:48:10;10.70;;;4.90;;
76228;SDS011;65021;53.174;18.160;2022-12-07T14:50:39;7.90;;;3.70;;
76228;SDS011;65021;53.174;18.160;2022-12-07T14:53:17;6.50;;;2.90;;
76228;SDS011;65021;53.174;18.160;2022-12-07T14:55:48;11.10;;;5.50;;
76228;SDS011;65021;53.174;18.160;2022-12-07T14:58:15;9.50;;;4.20;;
76228;SDS011;65021;53.174;18.160;2022-12-07T15:00:44;9.90;;;5.20;;
76228;SDS011;65021;53.174;18.160;2022-12-07T15:03:11;10.60;;;4.70;;
76228;SDS011;65021;53.174;18.160;2022-12-07T15:05:39;9.60;;;5.60;;
76228;SDS011;65021;53.174;18.160;2022-12-07T15:08:08;8.80;;;4.30;;
76228;SDS011;65021;53.174;18.160;2022-12-07T15:13:04;10.80;;;5.90;;
76228;SDS011;65021;53.174;18.160;2022-12-07T15:15:50;8.50;;;4.00;;
76228;SDS011;65021;53.174;18.160;2022-12-07T15:18:18;10.10;;;5.30;;
76228;SDS011;65021;53.174;18.160;2022-12-07T15:20:46;7.70;;;3.10;;
76228;SDS011;65021;53.174;18.160;2022-12-07T15:23:14;11.80;;;6.00;;
76228;SDS011;65021;53.174;18.160;2022-12-07T15:25:41;10.10;;;4.90;;
76228;SDS011;65021;53.174;18.160;2022-12-07T15:28:12;12.00;;;5.90;;
76228;SDS011;65021;53.174;18.160;2022-12-07T15:30:41;10.90;;;5.20;;
76228;SDS011;65021;53.174;18.160;2022-12-07T15:33:11;8.50;;;3.80;;
76228;SDS011;65021;53.174;18.160;2022-12-07T15:35:39;11.30;;;5.60;;
76228;SDS011;65021;53.174;18.160;2022-12-07T15:38:07;10.00;;;5.90;;
76228;SDS011;65021;53.174;18.160;2022-12-07T15:40:34;11.50;;;5.30;;
76228;SDS011;65021;53.174;18.160;2022-12-07T15:43:01;7.50;;;4.80;;
76228;SDS011;65021;53.174;18.160;2022-12-07T15:45:28;8.20;;;4.70;;
76228;SDS011;65021;53.174;18.160;2022-12-07T15:47:55;5.40;;;2.60;;
76228;SDS011;65021;53.174;18.160;2022-12-07T15:50:21;9.50;;;3.40;;
76228;SDS011;65021;53.174;18.160;2022-12-07T15:52:48;10.80;;;4.90;;
76228;SDS011;65021;53.174;18.160;2022-12-07T15:55:15;10.30;;;4.90;;
76228;SDS011;65021;53.174;18.160;2022-12-07T15:57:41;10.00;;;4.70;;
76228;SDS011;65021;53.174;18.160;2022-12-07T16:00:08;12.50;;;5.60;;
76228;SDS011;65021;53.174;18.160;2022-12-07T16:02:36;7.10;;;3.30;;
76228;SDS011;65021;53.174;18.160;2022-12-07T16:05:03;10.60;;;5.10;;
76228;SDS011;65021;53.174;18.160;2022-12-07T16:07:30;11.10;;;3.90;;
76228;SDS011;65021;53.174;18.160;2022-12-07T16:09:56;13.00;;;5.70;;
76228;SDS011;65021;53.174;18.160;2022-12-07T16:12:23;13.80;;;6.40;;
76228;SDS011;65021;53.174;18.160;2022-12-07T16:14:51;13.20;;;6.30;;
76228;SDS011;65021;53.174;18.160;2022-12-07T16:17:17;11.80;;;5.70;;
76228;SDS011;65021;53.174;18.160;2022-12-07T16:19:44;15.10;;;7.40;;
76228;SDS011;65021;53.174;18.160;2022-12-07T16:22:11;13.80;;;5.90;;
76228;SDS011;65021;53.174;18.160;2022-12-07T16:24:37;14.90;;;7.50;;
76228;SDS011;65021;53.174;18.160;2022-12-07T16:27:04;18.40;;;7.60;;
76228;SDS011;65021;53.174;18.160;2022-12-07T16:29:30;16.80;;;7.70;;
76228;SDS011;65021;53.174;18.160;2022-12-07T16:31:57;15.50;;;7.30;;
76228;SDS011;65021;53.174;18.160;2022-12-07T16:34:23;11.90;;;5.50;;
76228;SDS011;65021;53.174;18.160;2022-12-07T16:36:50;16.50;;;6.50;;
76228;SDS011;65021;53.174;18.160;2022-12-07T16:39:17;9.80;;;4.80;;
76228;SDS011;65021;53.174;18.160;2022-12-07T16:41:44;9.30;;;3.80;;
76228;SDS011;65021;53.174;18.160;2022-12-07T16:44:13;21.20;;;8.60;;
76228;SDS011;65021;53.174;18.160;2022-12-07T16:46:40;19.30;;;8.90;;
76228;SDS011;65021;53.174;18.160;2022-12-07T16:49:10;19.90;;;8.10;;
76228;SDS011;65021;53.174;18.160;2022-12-07T16:51:39;19.70;;;7.70;;
76228;SDS011;65021;53.174;18.160;2022-12-07T16:54:05;15.30;;;6.50;;
76228;SDS011;65021;53.174;18.160;2022-12-07T16:56:32;14.40;;;6.30;;
76228;SDS011;65021;53.174;18.160;2022-12-07T16:58:58;17.70;;;6.20;;
76228;SDS011;65021;53.174;18.160;2022-12-07T17:01:25;21.80;;;7.50;;
76228;SDS011;65021;53.174;18.160;2022-12-07T17:03:54;19.00;;;8.00;;
76228;SDS011;65021;53.174;18.160;2022-12-07T17:06:21;18.80;;;7.10;;
76228;SDS011;65021;53.174;18.160;2022-12-07T17:08:50;21.10;;;7.00;;
76228;SDS011;65021;53.174;18.160;2022-12-07T17:11:21;15.20;;;5.70;;
76228;SDS011;65021;53.174;18.160;2022-12-07T17:13:53;16.50;;;6.00;;
76228;SDS011;65021;53.174;18.160;2022-12-07T17:16:38;14.20;;;6.60;;
76228;SDS011;65021;53.174;18.160;2022-12-07T17:19:06;11.40;;;5.40;;
76228;SDS011;65021;53.174;18.160;2022-12-07T17:21:34;14.60;;;5.90;;
76228;SDS011;65021;53.174;18.160;2022-12-07T17:24:01;14.40;;;6.00;;